createdAt,value
2019-03-28T00:00:00.357Z,20.83
2019-03-28T00:05:02.627Z,21.03
2019-03-28T00:10:06.452Z,21.47
2019-03-28T00:15:08.658Z,21.70
2019-03-28T00:20:11.434Z,21.50
2019-03-28T00:25:13.684Z,22.97
2019-03-28T00:30:15.883Z,20.37
2019-03-28T00:35:18.664Z,22.60
2019-03-28T00:40:22.391Z,23.00
2019-03-28T00:45:24.568Z,21.67
2019-03-28T00:50:26.807Z,20.67
2019-03-28T00:55:29.009Z,21.90
2019-03-28T01:00:31.197Z,24.07
2019-03-28T01:05:33.798Z,22.97
2019-03-28T01:10:37.165Z,21.57
2019-03-28T01:15:39.403Z,22.40
2019-03-28T01:20:43.662Z,22.37
2019-03-28T01:25:45.878Z,22.70
2019-03-28T01:30:48.024Z,21.40
2019-03-28T01:35:50.197Z,22.47
2019-03-28T01:40:52.397Z,21.37
2019-03-28T01:45:54.615Z,21.90
2019-03-28T01:50:57.247Z,22.90
2019-03-28T01:55:59.959Z,24.97
2019-03-28T02:01:02.929Z,25.20
2019-03-28T02:06:05.376Z,24.53
2019-03-28T02:11:07.630Z,25.43
2019-03-28T02:16:09.867Z,27.90
2019-03-28T02:21:12.218Z,26.87
2019-03-28T02:26:14.426Z,26.33
2019-03-28T02:31:17.085Z,28.67
2019-03-28T02:36:19.550Z,28.57
2019-03-28T02:41:22.178Z,30.50
2019-03-28T02:46:25.327Z,29.17
2019-03-28T02:51:27.517Z,28.33
2019-03-28T02:56:29.695Z,29.43
2019-03-28T03:01:31.921Z,28.97
2019-03-28T03:06:34.182Z,31.70
2019-03-28T03:11:36.489Z,31.00
2019-03-28T03:16:39.137Z,30.53
2019-03-28T03:21:41.372Z,31.50
2019-03-28T03:26:43.614Z,31.63
2019-03-28T03:31:45.825Z,31.50
2019-03-28T03:36:48.353Z,33.10
2019-03-28T03:41:50.693Z,31.97
2019-03-28T03:46:53.801Z,33.63
2019-03-28T03:51:56.382Z,33.13
2019-03-28T03:56:58.650Z,33.67
2019-03-28T04:02:00.943Z,36.67
2019-03-28T04:07:03.436Z,35.40
2019-03-28T04:12:06.712Z,34.20
2019-03-28T04:17:08.943Z,34.87
2019-03-28T04:22:11.152Z,33.43
2019-03-28T04:27:13.821Z,34.87
2019-03-28T04:32:15.999Z,33.87
2019-03-28T04:37:18.295Z,36.63
2019-03-28T04:42:20.541Z,34.70
2019-03-28T04:47:22.776Z,35.47
2019-03-28T04:52:25.390Z,32.83
2019-03-28T04:57:27.873Z,34.27
2019-03-28T05:02:30.144Z,37.00
2019-03-28T05:07:32.747Z,36.07
2019-03-28T05:12:34.971Z,36.47
2019-03-28T05:17:37.251Z,36.60
2019-03-28T05:22:39.516Z,36.37
2019-03-28T05:27:41.675Z,36.43
2019-03-28T05:32:46.661Z,38.00
2019-03-28T05:37:48.796Z,35.50
2019-03-28T05:42:51.031Z,38.58
2019-03-28T05:47:54.281Z,33.40
2019-03-28T05:52:56.558Z,33.63
2019-03-28T05:57:58.803Z,35.87
2019-03-28T06:03:01.020Z,32.40
2019-03-28T06:08:03.362Z,32.63
2019-03-28T06:13:05.861Z,33.63
2019-03-28T06:18:08.171Z,34.33
2019-03-28T06:23:10.348Z,32.60
2019-03-28T06:28:13.171Z,30.93
2019-03-28T06:33:15.314Z,31.57
2019-03-28T06:38:17.548Z,31.67
2019-03-28T06:43:19.757Z,32.67
2019-03-28T06:48:22.045Z,31.37
2019-03-28T06:53:24.248Z,30.37
2019-03-28T06:58:26.454Z,28.67
2019-03-28T07:03:29.793Z,29.33
2019-03-28T07:08:32.033Z,27.60
2019-03-28T07:13:34.221Z,28.00
2019-03-28T07:18:36.574Z,29.53
2019-03-28T07:23:38.823Z,29.20
2019-03-28T07:28:41.025Z,28.57
2019-03-28T07:33:43.680Z,27.93
2019-03-28T07:38:46.569Z,27.23
2019-03-28T07:43:48.810Z,26.07
2019-03-28T07:48:51.162Z,26.67
2019-03-28T07:53:53.401Z,26.53
2019-03-28T07:58:56.037Z,27.13
2019-03-28T08:03:58.626Z,26.80
2019-03-28T08:09:00.876Z,26.73
2019-03-28T08:14:03.423Z,26.37
2019-03-28T08:19:07.997Z,24.87
2019-03-28T08:24:09.917Z,19.00
2019-03-28T08:29:12.166Z,19.03
2019-03-28T08:34:14.883Z,15.17
2019-03-28T08:39:17.247Z,15.07
2019-03-28T08:44:22.550Z,16.73
2019-03-28T08:49:23.747Z,16.70
2019-03-28T08:54:25.975Z,18.50
2019-03-28T08:59:28.460Z,19.67
2019-03-28T09:04:30.713Z,18.17
2019-03-28T09:09:33.021Z,19.73
2019-03-28T09:14:35.206Z,17.10
2019-03-28T09:19:39.103Z,9.57
2019-03-28T09:24:41.609Z,11.93
2019-03-28T09:29:43.749Z,13.43
2019-03-28T09:34:45.995Z,9.30
2019-03-28T09:39:48.248Z,11.17
2019-03-28T09:44:50.437Z,13.13
2019-03-28T09:49:53.146Z,12.70
2019-03-28T09:54:55.423Z,13.63
2019-03-28T09:59:57.643Z,13.03
2019-03-28T10:05:00.409Z,10.53
2019-03-28T10:10:03.155Z,9.87
2019-03-28T10:15:05.339Z,10.27
2019-03-28T10:20:07.489Z,10.80
2019-03-28T10:25:12.418Z,9.70
2019-03-28T10:30:15.657Z,8.47
2019-03-28T10:35:36.235Z,9.07
2019-03-28T10:40:38.458Z,9.13
2019-03-28T10:45:40.775Z,9.80
2019-03-28T10:50:45.756Z,10.10
2019-03-28T10:55:48.201Z,9.83
2019-03-28T11:00:50.466Z,8.67
2019-03-28T11:05:52.679Z,10.27
2019-03-28T11:10:55.246Z,10.53
2019-03-28T11:15:57.549Z,9.93
2019-03-28T11:20:59.830Z,10.83
2019-03-28T11:26:02.112Z,10.78
2019-03-28T11:31:04.342Z,10.70
2019-03-28T11:36:06.596Z,11.18
2019-03-28T11:41:08.981Z,11.38
2019-03-28T11:46:11.184Z,11.20
2019-03-28T11:51:13.362Z,10.10
2019-03-28T11:56:15.593Z,10.43
2019-03-28T12:01:18.218Z,11.17
2019-03-28T12:06:20.591Z,10.37
2019-03-28T12:11:22.766Z,9.47
2019-03-28T12:16:24.957Z,10.53
2019-03-28T12:21:27.193Z,9.33
2019-03-28T12:26:29.533Z,8.77
2019-03-28T12:31:33.425Z,9.47
2019-03-28T12:36:35.711Z,8.97
2019-03-28T12:41:37.896Z,7.83
2019-03-28T12:46:40.853Z,6.75
2019-03-28T12:51:43.550Z,7.13
2019-03-28T12:56:45.860Z,8.00
2019-03-28T13:01:48.129Z,7.20
2019-03-28T13:06:50.304Z,7.93
2019-03-28T13:11:52.773Z,10.03
2019-03-28T13:16:55.002Z,10.10
2019-03-28T13:21:57.173Z,10.80
2019-03-28T13:26:59.800Z,10.87
2019-03-28T13:32:02.046Z,11.10
2019-03-28T13:37:04.184Z,11.23
2019-03-28T13:42:06.381Z,10.97
2019-03-28T13:47:08.650Z,10.30
2019-03-28T13:52:11.174Z,10.13
2019-03-28T13:57:13.727Z,10.23
2019-03-28T14:02:17.225Z,10.83
2019-03-28T14:07:19.427Z,10.03
2019-03-28T14:12:23.323Z,9.20
2019-03-28T14:17:27.002Z,10.60
2019-03-28T14:22:29.241Z,9.40
2019-03-28T14:27:31.452Z,8.33
2019-03-28T14:32:33.669Z,8.80
2019-03-28T14:37:35.821Z,7.60
2019-03-28T14:42:38.041Z,8.30
2019-03-28T14:47:40.836Z,9.23
2019-03-28T14:52:43.580Z,10.57
2019-03-28T14:57:45.724Z,10.17
2019-03-28T15:02:48.380Z,10.60
2019-03-28T15:07:51.543Z,11.60
2019-03-28T15:12:54.026Z,12.07
2019-03-28T15:17:56.149Z,11.73
2019-03-28T15:22:58.757Z,12.17
2019-03-28T15:28:01.346Z,11.80
2019-03-28T15:33:07.066Z,12.47
2019-03-28T15:38:09.319Z,12.83
2019-03-28T15:43:11.670Z,13.93
2019-03-28T15:48:14.062Z,14.10
2019-03-28T15:53:16.381Z,12.20
2019-03-28T15:58:23.663Z,11.10
2019-03-28T16:03:22.717Z,10.87
2019-03-28T16:08:25.120Z,9.20
2019-03-28T16:13:27.282Z,8.77
2019-03-28T16:18:30.541Z,8.47
2019-03-28T16:23:32.746Z,9.70
2019-03-28T16:28:34.904Z,10.67
2019-03-28T16:33:37.383Z,8.10
2019-03-28T16:38:39.826Z,10.03
2019-03-28T16:43:41.987Z,9.50
2019-03-28T16:48:44.246Z,9.37
2019-03-28T16:53:46.427Z,11.93
2019-03-28T16:58:48.714Z,11.10
2019-03-28T17:03:50.901Z,11.17
2019-03-28T17:08:53.670Z,11.30
2019-03-28T17:13:55.830Z,11.50
2019-03-28T17:18:58.163Z,10.63
2019-03-28T17:24:00.682Z,10.13
2019-03-28T17:29:02.897Z,9.70
2019-03-28T17:34:05.082Z,11.47
2019-03-28T17:39:07.433Z,10.90
2019-03-28T17:44:09.654Z,10.53
2019-03-28T17:49:11.988Z,10.27
2019-03-28T17:54:14.210Z,11.57
2019-03-28T17:59:16.492Z,11.07
2019-03-28T18:04:23.150Z,12.87
2019-03-28T18:09:23.940Z,12.00
2019-03-28T18:14:26.238Z,12.37
2019-03-28T18:19:28.500Z,14.17
2019-03-28T18:24:31.608Z,14.00
2019-03-28T18:29:35.900Z,15.40
2019-03-28T18:34:37.998Z,16.10
2019-03-28T18:39:40.111Z,15.80
2019-03-28T18:44:42.309Z,13.00
2019-03-28T18:49:44.447Z,13.90
2019-03-28T18:54:46.646Z,13.70
2019-03-28T18:59:49.686Z,12.57
2019-03-28T19:04:51.946Z,12.27
2019-03-28T19:09:54.185Z,13.60
2019-03-28T19:14:56.355Z,13.87
2019-03-28T19:19:59.670Z,12.53
2019-03-28T19:25:02.131Z,12.67
2019-03-28T19:30:04.565Z,13.10
2019-03-28T19:35:07.206Z,13.53
2019-03-28T19:40:09.370Z,14.27
2019-03-28T19:45:16.792Z,12.83
2019-03-28T19:50:29.030Z,13.60
2019-03-28T19:55:30.132Z,14.03
2019-03-28T20:00:32.402Z,16.63
2019-03-28T20:05:47.479Z,17.63
2019-03-28T20:10:41.825Z,17.20
2019-03-28T20:15:44.653Z,15.30
2019-03-28T20:20:48.130Z,17.23
2019-03-28T20:25:50.335Z,17.27
2019-03-28T20:30:53.828Z,17.77
2019-03-28T20:36:12.021Z,18.07
2019-03-28T20:41:01.033Z,16.77
2019-03-28T20:46:03.302Z,17.33
2019-03-28T20:51:05.429Z,18.27
2019-03-28T20:56:07.848Z,17.53
2019-03-28T21:01:10.094Z,18.23
2019-03-28T21:06:15.560Z,19.03
2019-03-28T21:11:16.391Z,17.43
2019-03-28T21:16:18.595Z,18.73
2019-03-28T21:21:20.885Z,18.00
2019-03-28T21:26:23.065Z,18.33
2019-03-28T21:31:25.315Z,19.07
2019-03-28T21:36:30.074Z,17.37
2019-03-28T21:41:31.633Z,17.63
2019-03-28T21:46:33.858Z,19.50
2019-03-28T21:51:36.513Z,21.40
2019-03-28T21:56:41.331Z,17.57
2019-03-28T22:01:43.059Z,17.83
2019-03-28T22:06:45.176Z,22.13
2019-03-28T22:11:47.333Z,21.97
2019-03-28T22:16:49.983Z,18.33
2019-03-28T22:21:53.729Z,23.40
2019-03-28T22:26:55.901Z,23.43
2019-03-28T22:31:58.458Z,23.87
2019-03-28T22:37:03.464Z,23.57
2019-03-28T22:42:04.750Z,19.73
2019-03-28T22:47:06.951Z,19.10
2019-03-28T22:52:09.131Z,22.37
2019-03-28T22:57:11.725Z,21.87
2019-03-28T23:02:13.872Z,19.87
2019-03-28T23:07:16.041Z,17.73
2019-03-28T23:12:18.192Z,18.87
2019-03-28T23:17:21.066Z,24.53
2019-03-28T23:22:23.598Z,24.70
2019-03-28T23:27:26.880Z,20.07
2019-03-28T23:32:29.210Z,18.67
2019-03-28T23:37:31.729Z,18.67
2019-03-28T23:42:33.852Z,18.27
2019-03-28T23:47:36.033Z,18.70
2019-03-28T23:52:38.275Z,19.60
2019-03-28T23:57:44.468Z,18.87
